createdAt,value
2022-08-25T00:00:02.033Z,19.03
2022-08-25T00:03:43.938Z,18.99
2022-08-25T00:07:19.133Z,18.94
2022-08-25T00:11:02.876Z,18.89
2022-08-25T00:14:36.789Z,18.82
2022-08-25T00:18:28.457Z,18.75
2022-08-25T00:22:09.208Z,18.65
2022-08-25T00:25:30.713Z,18.55
2022-08-25T00:29:09.599Z,18.51
2022-08-25T00:32:55.507Z,18.48
2022-08-25T00:36:40.879Z,18.46
2022-08-25T00:40:03.352Z,18.46
2022-08-25T00:43:42.536Z,18.48
2022-08-25T00:47:35.968Z,18.45
2022-08-25T00:50:58.435Z,18.47
2022-08-25T00:54:57.060Z,18.50
2022-08-25T00:58:39.685Z,18.56
2022-08-25T01:02:04.418Z,18.59
2022-08-25T01:05:41.030Z,18.63
2022-08-25T01:09:15.493Z,18.67
2022-08-25T01:13:34.155Z,18.73
2022-08-25T01:17:16.328Z,18.73
2022-08-25T01:20:38.571Z,18.69
2022-08-25T01:24:35.375Z,18.58
2022-08-25T01:27:57.789Z,18.47
2022-08-25T01:31:36.758Z,18.37
2022-08-25T01:35:30.440Z,18.29
2022-08-25T01:38:52.899Z,18.26
2022-08-25T01:43:06.145Z,18.27
2022-08-25T01:46:28.377Z,18.30
2022-08-25T01:50:24.466Z,18.31
2022-08-25T01:53:46.151Z,18.24
2022-08-25T01:57:22.845Z,18.14
2022-08-25T02:01:03.877Z,18.13
2022-08-25T02:04:37.535Z,18.19
2022-08-25T02:08:13.716Z,18.25
2022-08-25T02:12:09.160Z,18.30
2022-08-25T02:15:31.383Z,18.30
2022-08-25T02:19:10.285Z,18.22
2022-08-25T02:22:51.134Z,18.18
2022-08-25T02:26:22.523Z,18.18
2022-08-25T02:29:58.392Z,18.20
2022-08-25T02:33:35.532Z,18.22
2022-08-25T02:37:13.004Z,18.20
2022-08-25T02:40:49.433Z,18.14
2022-08-25T02:44:25.283Z,18.10
2022-08-25T02:48:03.216Z,18.04
2022-08-25T02:51:59.912Z,18.01
2022-08-25T02:55:42.375Z,17.99
2022-08-25T02:59:04.506Z,17.97
2022-08-25T03:02:41.551Z,17.97
2022-08-25T03:06:20.660Z,18.01
2022-08-25T03:09:54.393Z,18.07
2022-08-25T03:13:32.375Z,18.13
2022-08-25T03:17:08.963Z,18.17
2022-08-25T03:20:46.040Z,18.19
2022-08-25T03:24:40.179Z,18.23
2022-08-25T03:28:02.254Z,18.29
2022-08-25T03:31:39.808Z,18.32
2022-08-25T03:35:16.186Z,18.33
2022-08-25T03:38:53.118Z,18.33
2022-08-25T03:42:29.244Z,18.35
2022-08-25T03:46:06.482Z,18.38
2022-08-25T03:49:43.253Z,18.32
2022-08-25T03:53:38.755Z,18.25
2022-08-25T03:57:20.104Z,18.18
2022-08-25T04:00:42.235Z,18.10
2022-08-25T04:04:18.507Z,18.03
2022-08-25T04:07:55.959Z,18.06
2022-08-25T04:11:32.431Z,18.11
2022-08-25T04:15:10.743Z,18.13
2022-08-25T04:18:47.764Z,18.11
2022-08-25T04:22:22.572Z,18.10
2022-08-25T04:25:59.175Z,18.10
2022-08-25T04:29:35.939Z,18.08
2022-08-25T04:33:13.701Z,18.03
2022-08-25T04:36:52.572Z,17.99
2022-08-25T04:40:28.995Z,17.95
2022-08-25T04:44:04.195Z,17.91
2022-08-25T04:47:40.267Z,17.86
2022-08-25T04:51:20.147Z,17.84
2022-08-25T04:54:53.816Z,17.88
2022-08-25T04:58:30.605Z,17.94
2022-08-25T05:02:07.485Z,17.99
2022-08-25T05:05:44.015Z,18.04
2022-08-25T05:09:21.794Z,18.10
2022-08-25T05:12:57.559Z,18.21
2022-08-25T05:16:35.010Z,18.34
2022-08-25T05:20:11.238Z,18.46
2022-08-25T05:23:49.126Z,18.55
2022-08-25T05:27:24.546Z,18.63
2022-08-25T05:31:03.247Z,18.69
2022-08-25T05:34:38.365Z,18.75
2022-08-25T05:38:15.590Z,18.81
2022-08-25T05:41:52.120Z,18.91
2022-08-25T05:45:28.608Z,19.00
2022-08-25T05:49:05.330Z,19.07
2022-08-25T05:52:42.636Z,19.12
2022-08-25T05:56:20.343Z,19.18
2022-08-25T05:59:56.047Z,19.25
2022-08-25T06:03:52.723Z,19.34
2022-08-25T06:07:14.341Z,19.46
2022-08-25T06:10:54.131Z,19.60
2022-08-25T06:14:27.670Z,19.74
2022-08-25T06:18:05.251Z,19.88
2022-08-25T06:22:00.568Z,20.03
2022-08-25T06:25:24.833Z,20.19
2022-08-25T06:28:59.334Z,20.30
2022-08-25T06:32:37.778Z,20.32
2022-08-25T06:36:13.047Z,20.34
2022-08-25T06:40:10.516Z,20.42
2022-08-25T06:43:33.322Z,20.53
2022-08-25T06:47:09.829Z,20.67
2022-08-25T06:51:13.874Z,20.77
2022-08-25T06:54:36.482Z,20.87
2022-08-25T06:58:12.881Z,20.97
2022-08-25T07:01:49.589Z,21.05
2022-08-25T07:05:34.045Z,21.15
2022-08-25T07:09:08.634Z,21.23
2022-08-25T07:12:42.959Z,21.32
2022-08-25T07:16:21.017Z,21.39
2022-08-25T07:19:57.660Z,21.44
2022-08-25T07:23:33.495Z,21.50
2022-08-25T07:27:09.954Z,21.59
2022-08-25T07:30:51.854Z,21.66
2022-08-25T07:34:42.618Z,21.75
2022-08-25T07:38:10.220Z,21.84
2022-08-25T07:41:43.472Z,21.96
2022-08-25T07:45:21.974Z,22.03
2022-08-25T07:48:56.887Z,22.10
2022-08-25T07:52:55.442Z,22.19
2022-08-25T07:56:36.364Z,22.29
2022-08-25T08:00:18.127Z,22.40
2022-08-25T08:03:50.721Z,22.49
2022-08-25T08:07:22.938Z,22.58
2022-08-25T08:11:10.679Z,22.65
2022-08-25T08:14:33.263Z,22.72
2022-08-25T08:18:11.885Z,22.81
2022-08-25T08:21:48.735Z,22.90
2022-08-25T08:25:26.785Z,22.98
2022-08-25T08:29:01.269Z,23.06
2022-08-25T08:33:12.840Z,23.16
2022-08-25T08:36:57.642Z,23.27
2022-08-25T08:40:20.855Z,23.38
2022-08-25T08:44:42.158Z,23.46
2022-08-25T08:48:07.131Z,23.54
2022-08-25T08:51:54.254Z,23.64
2022-08-25T08:55:52.301Z,23.68
2022-08-25T08:59:30.326Z,23.72
2022-08-25T09:03:09.562Z,23.77
2022-08-25T09:06:51.747Z,23.89
2022-08-25T09:10:44.334Z,23.94
2022-08-25T09:14:12.866Z,24.06
2022-08-25T09:18:13.343Z,24.17
2022-08-25T09:22:33.545Z,24.28
2022-08-25T09:26:40.086Z,24.44
2022-08-25T09:30:08.020Z,24.60
2022-08-25T09:33:39.659Z,24.67
2022-08-25T09:37:16.777Z,24.77
2022-08-25T09:40:57.701Z,24.85
2022-08-25T09:44:49.736Z,24.96
2022-08-25T09:48:22.469Z,25.09
2022-08-25T09:51:48.403Z,25.17
2022-08-25T09:55:32.389Z,25.25
2022-08-25T09:59:34.670Z,25.36
2022-08-25T10:03:05.901Z,25.47
2022-08-25T10:06:43.830Z,25.62
2022-08-25T10:10:23.322Z,25.68
2022-08-25T10:13:51.914Z,25.82
2022-08-25T10:17:31.967Z,26.04
2022-08-25T10:21:15.942Z,26.18
2022-08-25T10:24:44.065Z,26.39
2022-08-25T10:28:41.532Z,26.52
2022-08-25T10:32:10.245Z,26.70
2022-08-25T10:35:55.238Z,26.78
2022-08-25T10:39:55.658Z,26.91
2022-08-25T10:44:06.096Z,27.09
2022-08-25T10:48:14.807Z,27.23
2022-08-25T10:52:03.713Z,27.36
2022-08-25T10:55:54.751Z,27.46
2022-08-25T10:59:39.769Z,27.60
2022-08-25T11:03:43.940Z,27.76
2022-08-25T11:07:19.671Z,27.86
2022-08-25T11:10:53.022Z,27.93
2022-08-25T11:14:40.065Z,28.01
2022-08-25T11:18:14.805Z,28.11
2022-08-25T11:21:46.450Z,28.27
2022-08-25T11:25:35.039Z,28.47
2022-08-25T11:29:18.163Z,28.54
2022-08-25T11:32:44.607Z,28.72
2022-08-25T11:36:37.555Z,28.83
2022-08-25T11:40:19.927Z,29.02
2022-08-25T11:44:11.616Z,29.21
2022-08-25T11:47:56.529Z,29.40
2022-08-25T11:51:44.530Z,29.56
2022-08-25T11:55:27.259Z,29.72
2022-08-25T11:58:51.763Z,29.80
2022-08-25T12:02:40.404Z,29.89
2022-08-25T12:06:17.047Z,29.99
2022-08-25T12:09:51.127Z,30.14
2022-08-25T12:13:40.786Z,30.35
2022-08-25T12:17:19.229Z,30.44
2022-08-25T12:20:53.605Z,30.59
2022-08-25T12:24:25.152Z,30.73
2022-08-25T12:28:04.934Z,30.72
2022-08-25T12:31:51.232Z,30.77
2022-08-25T12:35:40.520Z,30.92
2022-08-25T12:39:24.396Z,31.16
2022-08-25T12:42:47.302Z,31.35
2022-08-25T12:46:25.811Z,31.45
2022-08-25T12:50:19.397Z,31.57
2022-08-25T12:53:51.084Z,31.74
2022-08-25T12:57:50.690Z,31.87
2022-08-25T13:01:51.158Z,31.90
2022-08-25T13:05:22.568Z,31.93
2022-08-25T13:09:20.612Z,32.09
2022-08-25T13:13:10.753Z,32.31
2022-08-25T13:16:57.417Z,32.44
2022-08-25T13:20:26.789Z,32.38
2022-08-25T13:24:20.602Z,32.52
2022-08-25T13:27:42.122Z,32.64
2022-08-25T13:31:22.328Z,32.80
2022-08-25T13:35:08.902Z,32.94
2022-08-25T13:38:32.291Z,33.04
2022-08-25T13:42:14.520Z,33.05
2022-08-25T13:45:47.668Z,33.00
2022-08-25T13:49:26.301Z,33.14
2022-08-25T13:53:04.176Z,33.17
2022-08-25T13:57:05.542Z,33.33
2022-08-25T14:00:43.442Z,33.46
2022-08-25T14:04:25.965Z,33.49
2022-08-25T14:08:09.264Z,33.65
2022-08-25T14:11:43.992Z,33.96
2022-08-25T14:15:18.520Z,33.81
2022-08-25T14:18:55.105Z,34.01
2022-08-25T14:22:29.243Z,34.07
2022-08-25T14:26:06.421Z,34.28
2022-08-25T14:29:43.378Z,34.49
2022-08-25T14:33:23.577Z,34.92
2022-08-25T14:37:20.063Z,35.36
2022-08-25T14:40:42.069Z,35.95
2022-08-25T14:44:18.536Z,36.42
2022-08-25T14:48:03.899Z,36.72
2022-08-25T14:51:33.870Z,37.20
2022-08-25T14:55:10.597Z,37.60
2022-08-25T14:59:04.993Z,37.94
2022-08-25T15:02:30.553Z,38.00
2022-08-25T15:06:05.163Z,38.01
2022-08-25T15:09:40.309Z,38.08
2022-08-25T15:13:17.358Z,38.13
2022-08-25T15:16:56.830Z,38.07
2022-08-25T15:20:30.478Z,37.84
2022-08-25T15:24:27.978Z,37.39
2022-08-25T15:28:10.088Z,36.97
2022-08-25T15:31:34.106Z,36.54
2022-08-25T15:35:08.820Z,35.90
2022-08-25T15:39:05.386Z,35.30
2022-08-25T15:42:46.332Z,34.86
2022-08-25T15:46:09.078Z,34.59
2022-08-25T15:50:08.744Z,34.34
2022-08-25T15:53:33.502Z,33.88
2022-08-25T15:57:26.705Z,33.41
2022-08-25T16:00:56.241Z,32.99
2022-08-25T16:04:45.842Z,32.57
2022-08-25T16:08:09.423Z,32.15
2022-08-25T16:11:44.304Z,31.77
2022-08-25T16:15:23.755Z,31.45
2022-08-25T16:18:58.410Z,31.20
2022-08-25T16:22:34.428Z,30.94
2022-08-25T16:26:12.964Z,30.78
2022-08-25T16:29:48.440Z,30.69
2022-08-25T16:33:24.784Z,30.59
2022-08-25T16:37:02.993Z,30.47
2022-08-25T16:40:42.554Z,30.36
2022-08-25T16:44:34.578Z,30.25
2022-08-25T16:48:15.014Z,30.09
2022-08-25T16:51:38.702Z,29.88
2022-08-25T16:55:14.204Z,29.64
2022-08-25T16:59:01.380Z,29.35
2022-08-25T17:02:47.233Z,29.06
2022-08-25T17:06:29.759Z,28.72
2022-08-25T17:09:53.175Z,28.42
2022-08-25T17:13:29.318Z,28.13
2022-08-25T17:17:07.067Z,27.76
2022-08-25T17:20:46.875Z,27.26
2022-08-25T17:24:37.558Z,26.81
2022-08-25T17:28:02.846Z,26.35
2022-08-25T17:31:40.252Z,25.95
2022-08-25T17:35:15.704Z,25.53
2022-08-25T17:39:14.067Z,25.16
2022-08-25T17:42:35.706Z,24.85
2022-08-25T17:46:12.955Z,24.55
2022-08-25T17:49:49.190Z,24.29
2022-08-25T17:53:26.451Z,24.03
2022-08-25T17:57:02.983Z,23.79
2022-08-25T18:00:44.022Z,23.55
2022-08-25T18:04:17.996Z,23.33
2022-08-25T18:07:54.660Z,23.18
2022-08-25T18:11:30.265Z,23.07
2022-08-25T18:15:08.119Z,22.94
2022-08-25T18:18:44.391Z,22.76
2022-08-25T18:22:20.252Z,22.55
2022-08-25T18:26:01.025Z,22.37
2022-08-25T18:29:34.083Z,22.27
2022-08-25T18:33:11.119Z,22.16
2022-08-25T18:36:48.836Z,22.03
2022-08-25T18:40:25.444Z,21.86
2022-08-25T18:44:20.429Z,21.77
2022-08-25T18:47:42.839Z,21.69
2022-08-25T18:51:19.455Z,21.64
2022-08-25T18:54:55.997Z,21.56
2022-08-25T18:58:36.084Z,21.49
2022-08-25T19:02:28.533Z,21.39
2022-08-25T19:05:52.829Z,21.24
2022-08-25T19:09:26.934Z,21.09
2022-08-25T19:13:07.996Z,20.96
2022-08-25T19:16:43.631Z,20.87
2022-08-25T19:20:18.103Z,20.74
2022-08-25T19:23:54.414Z,20.64
2022-08-25T19:27:51.617Z,20.58
2022-08-25T19:31:34.701Z,20.56
2022-08-25T19:34:56.673Z,20.56
2022-08-25T19:38:35.553Z,20.54
2022-08-25T19:42:36.683Z,20.49
2022-08-25T19:45:52.550Z,20.41
2022-08-25T19:49:34.502Z,20.32
2022-08-25T19:53:06.544Z,20.23
2022-08-25T19:56:54.974Z,20.13
2022-08-25T20:00:29.187Z,20.05
2022-08-25T20:03:56.994Z,19.99
2022-08-25T20:07:33.641Z,19.95
2022-08-25T20:11:09.950Z,19.91
2022-08-25T20:14:48.651Z,19.87
2022-08-25T20:18:23.410Z,19.77
2022-08-25T20:22:22.499Z,19.67
2022-08-25T20:25:47.528Z,19.58
2022-08-25T20:29:23.713Z,19.52
2022-08-25T20:33:22.561Z,19.47
2022-08-25T20:36:49.661Z,19.43
2022-08-25T20:40:25.419Z,19.39
2022-08-25T20:44:01.490Z,19.32
2022-08-25T20:47:55.640Z,19.24
2022-08-25T20:51:18.732Z,19.16
2022-08-25T20:54:55.228Z,19.09
2022-08-25T20:58:31.045Z,19.04
2022-08-25T21:02:07.964Z,19.02
2022-08-25T21:06:08.925Z,19.07
2022-08-25T21:09:30.238Z,19.15
2022-08-25T21:13:26.871Z,19.26
2022-08-25T21:16:49.558Z,19.34
2022-08-25T21:20:25.632Z,19.39
2022-08-25T21:24:24.557Z,19.41
2022-08-25T21:27:46.194Z,19.41
2022-08-25T21:31:23.624Z,19.40
2022-08-25T21:34:59.724Z,19.36
2022-08-25T21:38:39.960Z,19.32
2022-08-25T21:42:13.385Z,19.27
2022-08-25T21:45:50.357Z,19.21
2022-08-25T21:49:27.026Z,19.13
2022-08-25T21:53:08.176Z,19.08
2022-08-25T21:57:03.407Z,19.06
2022-08-25T22:00:44.312Z,19.06
2022-08-25T22:04:08.046Z,19.05
2022-08-25T22:07:44.015Z,19.06
2022-08-25T22:11:39.037Z,19.02
2022-08-25T22:15:00.943Z,18.97
2022-08-25T22:18:56.519Z,18.93
2022-08-25T22:22:21.058Z,18.89
2022-08-25T22:25:58.223Z,18.83
2022-08-25T22:29:52.221Z,18.78
2022-08-25T22:33:15.582Z,18.74
2022-08-25T22:36:51.760Z,18.63
2022-08-25T22:40:29.442Z,18.54
2022-08-25T22:44:25.143Z,18.47
2022-08-25T22:47:47.127Z,18.41
2022-08-25T22:51:26.697Z,18.34
2022-08-25T22:55:00.667Z,18.30
2022-08-25T22:58:38.435Z,18.24
2022-08-25T23:02:13.958Z,18.16
2022-08-25T23:05:50.928Z,18.08
2022-08-25T23:09:46.507Z,18.04
2022-08-25T23:13:08.799Z,18.04
2022-08-25T23:16:44.862Z,18.04
2022-08-25T23:20:45.245Z,18.02
2022-08-25T23:24:10.995Z,17.96
2022-08-25T23:27:45.322Z,17.91
2022-08-25T23:31:42.350Z,17.81
2022-08-25T23:35:05.675Z,17.81
2022-08-25T23:38:44.322Z,17.79
2022-08-25T23:42:21.593Z,17.75
2022-08-25T23:45:54.945Z,17.70
2022-08-25T23:49:50.530Z,17.63
2022-08-25T23:53:15.275Z,17.54
2022-08-25T23:56:52.281Z,17.49
